Time;durP1;ratioP1;P1;durP2;ratioP2;P2;SDS_P1;SDS_P2;PMS_P1;PMS_P2;Temp;Humidity;BMP_temperature;BMP_pressure;BME280_temperature;BME280_humidity;BME280_pressure;Samples;Min_cycle;Max_cycle;Signal;HPM_P1;HPM_P2
2022/12/24 00:02:20;;;;;;;27.17;18.38;;;7.70;99.90;;;;;;5049241;28;20500;-61
2022/12/24 00:04:47;;;;;;;37.65;21.60;;;7.70;99.90;;;;;;5047623;28;20101;-50
2022/12/24 00:07:14;;;;;;;33.70;20.23;;;7.70;99.90;;;;;;5059792;28;20098;-60
2022/12/24 00:09:42;;;;;;;36.65;20.05;;;7.70;99.90;;;;;;5051365;28;20483;-61
2022/12/24 00:12:09;;;;;;;31.42;19.58;;;7.70;99.90;;;;;;5049463;28;20094;-61
2022/12/24 00:14:35;;;;;;;29.75;17.92;;;7.80;99.90;;;;;;5046633;28;20081;-61
2022/12/24 00:17:02;;;;;;;33.92;19.35;;;7.80;99.90;;;;;;5039485;28;20057;-58
2022/12/24 00:19:29;;;;;;;36.75;20.52;;;7.80;99.90;;;;;;5046274;28;20458;-62
2022/12/24 00:21:56;;;;;;;41.28;21.65;;;7.80;99.90;;;;;;5052921;28;20132;-60
2022/12/24 00:24:22;;;;;;;41.85;20.98;;;7.80;99.90;;;;;;5053520;28;20080;-62
2022/12/24 00:26:51;;;;;;;34.72;20.42;;;7.80;99.90;;;;;;5052293;28;20080;-58
2022/12/24 00:29:17;;;;;;;43.90;22.42;;;7.90;99.90;;;;;;5048744;28;20506;-53
2022/12/24 00:31:45;;;;;;;46.35;22.60;;;7.90;99.90;;;;;;5051008;28;20131;-60
2022/12/24 00:34:11;;;;;;;43.45;22.98;;;7.90;99.90;;;;;;5049730;28;20049;-62
2022/12/24 00:36:38;;;;;;;52.25;22.65;;;7.90;99.90;;;;;;5052871;28;20385;-60
2022/12/24 00:39:05;;;;;;;46.70;23.67;;;7.90;99.90;;;;;;5049197;28;20106;-61
2022/12/24 00:41:32;;;;;;;55.30;23.90;;;8.00;99.90;;;;;;5049692;28;20075;-60
2022/12/24 00:44:01;;;;;;;53.17;24.80;;;8.00;99.90;;;;;;5052116;28;20717;-57
2022/12/24 00:46:29;;;;;;;51.20;24.15;;;8.00;99.90;;;;;;5052285;28;20120;-45
2022/12/24 00:48:56;;;;;;;49.17;22.67;;;8.10;99.90;;;;;;5049198;28;20084;-59
2022/12/24 00:51:22;;;;;;;58.83;24.90;;;8.00;99.90;;;;;;5044509;28;20489;-61
2022/12/24 00:53:49;;;;;;;53.08;24.67;;;8.00;99.90;;;;;;5049619;28;20564;-61
2022/12/24 00:56:16;;;;;;;56.63;24.90;;;8.10;99.90;;;;;;5050347;28;20061;-53
2022/12/24 00:58:43;;;;;;;58.55;24.52;;;8.10;99.90;;;;;;5046242;28;20563;-58
2022/12/24 01:01:11;;;;;;;57.10;24.30;;;8.10;99.90;;;;;;5049583;28;20091;-60
2022/12/24 01:03:38;;;;;;;61.28;25.80;;;8.10;99.90;;;;;;5045474;28;20438;-50
2022/12/24 01:06:05;;;;;;;51.20;24.38;;;8.10;99.90;;;;;;5053308;28;20076;-59
2022/12/24 01:08:31;;;;;;;55.88;25.20;;;8.20;99.90;;;;;;5051937;28;20057;-57
2022/12/24 01:10:58;;;;;;;62.83;25.40;;;8.20;99.90;;;;;;5045787;28;20053;-61
2022/12/24 01:13:25;;;;;;;67.47;26.38;;;8.20;99.90;;;;;;5048241;28;20064;-62
2022/12/24 01:15:52;;;;;;;65.13;26.73;;;8.20;99.90;;;;;;5032667;28;20405;-62
2022/12/24 01:18:20;;;;;;;62.17;26.77;;;8.20;99.90;;;;;;5045225;28;20099;-59
2022/12/24 01:20:56;;;;;;;64.13;26.02;;;8.20;99.90;;;;;;5043609;28;20127;-61
2022/12/24 01:23:23;;;;;;;63.90;27.20;;;8.20;99.90;;;;;;5040917;28;20550;-60
2022/12/24 01:25:49;;;;;;;67.28;26.73;;;8.20;99.90;;;;;;5050126;28;20100;-59
2022/12/24 01:28:16;;;;;;;52.25;26.17;;;8.20;99.90;;;;;;5050177;28;21357;-59
2022/12/24 01:30:43;;;;;;;60.85;24.25;;;8.20;99.90;;;;;;5049504;28;20048;-59
2022/12/24 01:33:10;;;;;;;52.72;25.38;;;8.30;99.90;;;;;;5047815;28;20076;-61
2022/12/24 01:35:41;;;;;;;60.28;23.67;;;8.30;99.90;;;;;;5049330;28;20084;-51
2022/12/24 01:38:08;;;;;;;56.60;22.85;;;8.30;99.90;;;;;;5044500;28;20071;-59
2022/12/24 01:43:24;;;;;;;50.25;22.13;;;8.30;99.90;;;;;;5051415;28;20044;-55
2022/12/24 01:45:51;;;;;;;43.50;21.80;;;8.30;99.90;;;;;;5051104;28;20045;-60
2022/12/24 01:48:22;;;;;;;49.15;22.77;;;8.30;99.90;;;;;;5049956;28;20081;-57
2022/12/24 01:50:51;;;;;;;40.80;20.67;;;8.30;99.90;;;;;;5049603;28;20045;-60
2022/12/24 01:53:18;;;;;;;44.95;21.42;;;8.40;99.90;;;;;;5051230;28;20313;-58
2022/12/24 01:55:45;;;;;;;32.97;18.67;;;8.40;99.90;;;;;;5048373;28;20070;-61
2022/12/24 01:58:11;;;;;;;35.35;19.45;;;8.40;99.90;;;;;;5048997;28;20440;-60
2022/12/24 02:00:38;;;;;;;34.75;19.05;;;8.40;99.90;;;;;;5044088;28;20084;-60
2022/12/24 02:03:05;;;;;;;34.20;17.27;;;8.50;99.90;;;;;;5051134;28;20056;-61
2022/12/24 02:05:34;;;;;;;28.48;16.52;;;8.50;99.90;;;;;;5049686;28;20128;-59
2022/12/24 02:08:03;;;;;;;34.95;16.00;;;8.50;99.90;;;;;;5047656;28;20084;-59
2022/12/24 02:10:30;;;;;;;32.85;15.77;;;8.50;99.90;;;;;;5042289;28;20080;-55
2022/12/24 02:12:58;;;;;;;26.20;13.90;;;8.50;99.90;;;;;;5045787;28;20472;-52
2022/12/24 02:15:25;;;;;;;29.90;13.20;;;8.60;99.90;;;;;;5048220;28;20045;-58
2022/12/24 02:17:55;;;;;;;34.95;13.90;;;8.60;99.90;;;;;;5047370;28;20590;-61
2022/12/24 02:20:54;;;;;;;31.38;14.43;;;8.60;99.90;;;;;;5041504;28;20081;-57
2022/12/24 02:23:43;;;;;;;32.40;14.27;;;8.60;99.90;;;;;;5039885;28;20578;-58
2022/12/24 02:26:23;;;;;;;29.80;14.68;;;8.60;99.90;;;;;;5043301;28;20142;-57
2022/12/24 02:29:14;;;;;;;39.53;13.45;;;8.70;99.90;;;;;;5043540;28;20124;-48
2022/12/24 02:31:43;;;;;;;30.80;13.20;;;8.60;99.90;;;;;;5042525;28;20080;-47
2022/12/24 02:34:13;;;;;;;35.75;13.10;;;8.70;99.90;;;;;;5045949;28;20083;-55
2022/12/24 02:36:42;;;;;;;27.50;11.52;;;8.70;99.90;;;;;;5044815;28;20494;-55
2022/12/24 02:39:10;;;;;;;27.92;9.10;;;8.70;99.90;;;;;;5050285;28;20462;-54
2022/12/24 02:44:19;;;;;;;41.42;8.35;;;8.70;99.90;;;;;;5045848;28;20044;-55
2022/12/24 02:46:47;;;;;;;46.75;7.82;;;8.70;99.90;;;;;;5050128;28;20103;-56
2022/12/24 02:49:14;;;;;;;32.72;6.47;;;8.70;99.90;;;;;;5049435;28;20053;-56
2022/12/24 02:51:41;;;;;;;52.88;6.97;;;8.70;99.90;;;;;;5051818;28;20481;-56
2022/12/24 02:54:08;;;;;;;53.70;6.78;;;8.70;99.90;;;;;;5054118;28;20045;-56
2022/12/24 02:56:45;;;;;;;60.05;6.57;;;8.70;99.90;;;;;;5059210;28;20547;-51
2022/12/24 02:59:25;;;;;;;54.85;6.50;;;8.80;99.90;;;;;;5055016;28;20056;-60
2022/12/24 03:01:57;;;;;;;48.78;6.68;;;8.80;99.90;;;;;;5047786;28;20132;-60
2022/12/24 03:04:39;;;;;;;67.63;7.47;;;8.80;99.90;;;;;;5048284;28;20055;-58
2022/12/24 03:07:07;;;;;;;58.72;6.65;;;8.70;99.90;;;;;;5049365;28;20049;-55
2022/12/24 03:09:38;;;;;;;65.30;6.78;;;8.80;99.90;;;;;;5049998;28;20077;-55
2022/12/24 03:12:07;;;;;;;60.33;6.85;;;8.80;99.90;;;;;;5048074;28;20481;-57
2022/12/24 03:14:34;;;;;;;51.65;6.57;;;8.70;99.90;;;;;;5054968;28;20139;-52
2022/12/24 03:17:02;;;;;;;67.00;7.93;;;8.70;99.90;;;;;;5048356;28;20049;-58
2022/12/24 03:19:29;;;;;;;72.00;7.18;;;8.70;99.90;;;;;;5050816;28;20053;-58
2022/12/24 03:21:56;;;;;;;70.88;7.78;;;8.70;99.90;;;;;;5047347;28;20052;-57
2022/12/24 03:24:23;;;;;;;53.35;6.82;;;8.70;99.90;;;;;;5043831;28;20095;-58
2022/12/24 03:26:50;;;;;;;69.50;8.48;;;8.70;99.90;;;;;;5045886;28;20457;-55
2022/12/24 03:29:17;;;;;;;62.28;7.35;;;8.70;99.90;;;;;;5047310;28;20049;-59
2022/12/24 03:31:45;;;;;;;43.72;5.35;;;8.70;99.90;;;;;;5042887;28;20574;-60
2022/12/24 03:34:13;;;;;;;46.55;6.38;;;8.70;99.90;;;;;;5046043;28;20101;-59
2022/12/24 03:36:40;;;;;;;51.65;6.38;;;8.70;99.90;;;;;;5047601;28;20076;-53
2022/12/24 03:39:08;;;;;;;49.10;5.65;;;8.70;99.90;;;;;;5048030;28;20090;-60
2022/12/24 03:41:34;;;;;;;49.97;6.63;;;8.70;99.90;;;;;;5044924;28;20095;-61
2022/12/24 03:44:01;;;;;;;49.08;5.88;;;8.70;99.90;;;;;;5046323;28;20709;-57
2022/12/24 03:46:28;;;;;;;52.10;7.00;;;8.70;99.90;;;;;;5043469;28;20073;-56
2022/12/24 03:48:55;;;;;;;60.53;7.43;;;8.80;99.90;;;;;;5045485;28;20081;-59
2022/12/24 03:51:24;;;;;;;60.60;6.65;;;8.80;99.90;;;;;;5051331;28;20153;-60
2022/12/24 03:53:52;;;;;;;49.22;6.47;;;8.70;99.90;;;;;;5047539;28;20480;-61
2022/12/24 03:56:19;;;;;;;54.30;7.32;;;8.80;99.90;;;;;;5044990;28;20124;-57
2022/12/24 03:58:46;;;;;;;53.78;5.75;;;8.80;99.90;;;;;;5046233;28;20053;-60
2022/12/24 04:01:12;;;;;;;48.88;6.32;;;8.80;99.90;;;;;;5043459;28;20882;-59
2022/12/24 04:03:39;;;;;;;53.25;5.70;;;8.80;99.90;;;;;;5047163;28;20152;-54
2022/12/24 04:06:07;;;;;;;42.53;6.32;;;8.70;99.90;;;;;;5049757;28;20045;-60
2022/12/24 04:08:35;;;;;;;45.22;6.75;;;8.80;99.90;;;;;;5042957;28;20140;-48
2022/12/24 04:11:07;;;;;;;50.35;6.80;;;8.80;99.90;;;;;;5046229;28;20048;-51
2022/12/24 04:13:34;;;;;;;51.45;5.93;;;8.80;99.90;;;;;;5052192;28;20052;-62
2022/12/24 04:16:02;;;;;;;47.60;6.82;;;8.70;99.90;;;;;;5045940;28;20103;-57
2022/12/24 04:18:28;;;;;;;51.75;6.57;;;8.70;99.90;;;;;;5048713;28;20103;-53
2022/12/24 04:20:55;;;;;;;43.67;6.28;;;8.70;99.90;;;;;;5048644;28;20072;-62
2022/12/24 04:23:22;;;;;;;49.03;6.28;;;8.70;99.90;;;;;;5043599;28;20088;-62
2022/12/24 04:25:50;;;;;;;43.35;6.15;;;8.70;99.90;;;;;;5046393;28;20089;-54
2022/12/24 04:28:17;;;;;;;53.75;7.28;;;8.70;99.90;;;;;;5049083;28;20127;-50
2022/12/24 04:30:44;;;;;;;47.67;6.32;;;8.60;99.90;;;;;;5043609;28;20048;-63
2022/12/24 04:33:11;;;;;;;57.35;7.30;;;8.60;99.90;;;;;;5051290;28;20517;-60
2022/12/24 04:35:40;;;;;;;62.00;7.35;;;8.60;99.90;;;;;;5045732;28;20130;-61
2022/12/24 04:38:06;;;;;;;51.28;6.05;;;8.50;99.90;;;;;;5047168;28;20473;-54
2022/12/24 04:40:33;;;;;;;63.90;7.03;;;8.50;99.90;;;;;;5043755;28;20106;-62
2022/12/24 04:43:01;;;;;;;72.60;7.85;;;8.50;99.90;;;;;;5042775;28;20072;-47
2022/12/24 04:45:28;;;;;;;67.97;7.90;;;8.50;99.90;;;;;;5044280;28;20049;-61
2022/12/24 04:47:55;;;;;;;61.33;6.88;;;8.50;99.90;;;;;;5044793;28;20080;-59
2022/12/24 04:50:22;;;;;;;69.68;8.40;;;8.50;99.90;;;;;;5048400;28;20044;-52
2022/12/24 04:52:49;;;;;;;58.72;7.15;;;8.50;99.90;;;;;;5046830;28;20129;-61
2022/12/24 04:55:15;;;;;;;54.45;6.57;;;8.50;99.90;;;;;;5051755;28;20076;-61
2022/12/24 04:57:42;;;;;;;58.47;7.38;;;8.50;99.90;;;;;;5048088;28;20569;-58
2022/12/24 05:00:11;;;;;;;61.88;7.32;;;8.50;99.90;;;;;;5044713;28;20141;-59
2022/12/24 05:02:38;;;;;;;61.42;7.32;;;8.50;99.90;;;;;;5044069;28;20140;-59
2022/12/24 05:05:06;;;;;;;61.38;6.70;;;8.50;99.90;;;;;;5043627;28;20045;-63
2022/12/24 05:07:34;;;;;;;61.78;6.53;;;8.50;99.90;;;;;;5039939;28;20476;-60
2022/12/24 05:10:00;;;;;;;58.15;7.63;;;8.50;99.90;;;;;;5045557;28;20056;-50
2022/12/24 05:12:27;;;;;;;62.50;7.07;;;8.50;99.90;;;;;;5045111;28;20474;-61
2022/12/24 05:14:54;;;;;;;64.90;8.60;;;8.50;99.90;;;;;;5049145;28;20158;-61
2022/12/24 05:17:22;;;;;;;67.10;7.72;;;8.50;99.90;;;;;;5042909;28;20477;-60
2022/12/24 05:19:49;;;;;;;63.55;7.65;;;8.50;99.90;;;;;;5049816;28;20118;-57
2022/12/24 05:27:45;;;;;;;66.25;7.60;;;8.50;99.90;;;;;;5046958;28;20490;-62
2022/12/24 05:30:12;;;;;;;55.38;6.63;;;8.50;99.90;;;;;;5046975;28;20048;-55
2022/12/24 05:32:40;;;;;;;64.90;7.50;;;8.50;99.90;;;;;;5048648;28;20103;-53
2022/12/24 05:35:08;;;;;;;70.30;8.45;;;8.60;99.90;;;;;;5044737;28;20543;-60
2022/12/24 05:37:38;;;;;;;63.67;7.35;;;8.60;99.90;;;;;;5045696;28;20051;-55
2022/12/24 05:40:06;;;;;;;67.22;7.22;;;8.60;99.90;;;;;;5043360;28;20055;-60
2022/12/24 05:42:33;;;;;;;59.13;7.55;;;8.60;99.90;;;;;;5045545;28;20072;-62
2022/12/24 05:44:59;;;;;;;65.05;7.25;;;8.60;99.90;;;;;;5045906;28;20481;-53
2022/12/24 05:47:26;;;;;;;54.15;7.38;;;8.60;99.90;;;;;;5043068;28;20143;-62
2022/12/24 05:49:54;;;;;;;75.43;8.27;;;8.60;99.90;;;;;;5046104;28;20120;-63
2022/12/24 05:52:21;;;;;;;56.97;7.53;;;8.60;99.90;;;;;;5042913;28;20118;-52
2022/12/24 05:54:48;;;;;;;65.25;7.97;;;8.70;99.90;;;;;;5046858;28;20138;-59
2022/12/24 05:57:15;;;;;;;64.65;7.57;;;8.70;99.90;;;;;;5044613;28;20049;-58
2022/12/24 05:59:42;;;;;;;67.75;7.38;;;8.70;99.90;;;;;;5045695;28;20426;-54
2022/12/24 06:02:09;;;;;;;75.88;8.52;;;8.70;99.90;;;;;;5044205;28;20139;-56
2022/12/24 06:04:36;;;;;;;66.35;8.25;;;8.70;99.90;;;;;;5041522;28;20080;-52
2022/12/24 06:07:04;;;;;;;67.95;8.73;;;8.70;99.90;;;;;;5040539;28;20080;-57
2022/12/24 06:09:31;;;;;;;74.53;8.25;;;8.70;99.90;;;;;;5040139;28;20084;-58
2022/12/24 06:11:58;;;;;;;75.50;8.68;;;8.70;99.90;;;;;;5041531;28;20468;-59
2022/12/24 06:14:24;;;;;;;66.40;8.48;;;8.70;99.90;;;;;;5042386;28;20061;-59
2022/12/24 06:16:51;;;;;;;70.97;9.82;;;8.70;99.90;;;;;;5048118;28;20504;-58
2022/12/24 06:19:18;;;;;;;71.50;9.23;;;8.80;99.90;;;;;;5047633;28;20124;-58
2022/12/24 06:21:45;;;;;;;63.35;9.50;;;8.70;99.90;;;;;;5042258;28;20073;-57
2022/12/24 06:24:13;;;;;;;73.43;8.50;;;8.80;99.90;;;;;;5044003;28;20053;-58
2022/12/24 06:26:40;;;;;;;75.70;8.73;;;8.80;99.90;;;;;;5042441;28;20163;-60
2022/12/24 06:29:07;;;;;;;84.38;9.82;;;8.80;99.90;;;;;;5042849;28;20056;-57
2022/12/24 06:31:33;;;;;;;73.00;9.77;;;8.80;99.90;;;;;;5041974;28;20462;-61
2022/12/24 06:34:00;;;;;;;61.80;8.55;;;8.80;99.90;;;;;;5043863;28;20102;-57
2022/12/24 06:36:27;;;;;;;69.13;8.90;;;8.80;99.90;;;;;;5043350;28;20103;-61
2022/12/24 06:38:54;;;;;;;65.18;9.07;;;8.80;99.90;;;;;;5047484;28;20484;-59
2022/12/24 06:41:22;;;;;;;72.25;9.50;;;8.90;99.90;;;;;;5048109;28;20080;-58
2022/12/24 06:43:50;;;;;;;62.05;8.82;;;8.90;99.90;;;;;;5043200;28;20081;-58
2022/12/24 06:46:17;;;;;;;69.25;8.25;;;8.90;99.90;;;;;;5045424;28;20085;-57
2022/12/24 06:48:44;;;;;;;74.00;8.90;;;8.90;99.90;;;;;;5044222;28;20457;-57
2022/12/24 06:51:11;;;;;;;66.25;8.68;;;8.90;99.90;;;;;;5048802;28;20110;-58
2022/12/24 06:53:38;;;;;;;62.85;8.32;;;8.90;99.90;;;;;;5040769;28;20045;-60
2022/12/24 06:56:05;;;;;;;60.75;8.27;;;8.90;99.90;;;;;;5049578;28;20558;-61
2022/12/24 06:58:34;;;;;;;65.47;9.77;;;8.90;99.90;;;;;;5049707;28;20049;-60
2022/12/24 07:01:01;;;;;;;56.85;8.50;;;8.90;99.90;;;;;;5049116;28;20092;-57
2022/12/24 07:03:28;;;;;;;65.25;8.60;;;9.00;99.90;;;;;;5046015;28;20439;-60
2022/12/24 07:05:55;;;;;;;63.10;8.80;;;8.90;99.90;;;;;;5039734;28;20144;-57
2022/12/24 07:08:22;;;;;;;63.08;8.15;;;8.90;99.90;;;;;;5040532;28;20114;-60
2022/12/24 07:10:48;;;;;;;66.93;8.13;;;8.90;99.90;;;;;;5042292;28;20049;-57
2022/12/24 07:13:15;;;;;;;68.05;8.23;;;8.90;99.90;;;;;;5047834;28;20076;-62
2022/12/24 07:15:43;;;;;;;63.65;9.43;;;8.90;99.90;;;;;;5046398;28;20053;-59
2022/12/24 07:18:10;;;;;;;73.80;10.55;;;9.00;99.90;;;;;;5042337;28;20053;-54
2022/12/24 07:20:37;;;;;;;60.00;7.57;;;9.00;99.90;;;;;;5041418;28;20045;-63
2022/12/24 07:23:04;;;;;;;65.75;8.05;;;8.90;99.90;;;;;;5044638;28;20106;-56
2022/12/24 07:25:32;;;;;;;74.18;7.13;;;8.90;99.90;;;;;;5047208;28;20134;-61
2022/12/24 07:27:59;;;;;;;57.78;7.15;;;8.90;99.90;;;;;;5038611;28;20565;-60
2022/12/24 07:30:26;;;;;;;68.28;6.90;;;8.90;99.90;;;;;;5040878;28;20081;-52
2022/12/24 07:32:54;;;;;;;59.53;6.88;;;8.90;99.90;;;;;;5047019;28;20049;-61
2022/12/24 07:35:21;;;;;;;58.92;7.07;;;8.90;99.90;;;;;;5044688;28;20084;-59
2022/12/24 07:37:48;;;;;;;54.63;7.15;;;8.90;99.90;;;;;;5042946;28;20464;-59
2022/12/24 07:40:15;;;;;;;67.53;6.75;;;8.90;99.90;;;;;;5048990;28;20099;-59
2022/12/24 07:42:41;;;;;;;68.97;8.35;;;8.90;99.90;;;;;;5048300;28;20060;-60
2022/12/24 07:45:09;;;;;;;54.25;6.75;;;9.00;99.90;;;;;;5049494;28;20118;-49
2022/12/24 07:47:36;;;;;;;61.05;6.93;;;9.00;99.90;;;;;;5049201;28;20076;-44
2022/12/24 07:50:05;;;;;;;57.35;7.20;;;8.90;99.90;;;;;;5045520;28;20060;-60
2022/12/24 07:52:31;;;;;;;59.85;8.30;;;8.90;99.90;;;;;;5046350;28;20441;-55
2022/12/24 07:54:58;;;;;;;61.08;6.97;;;8.90;99.90;;;;;;5043109;28;20048;-61
2022/12/24 07:57:25;;;;;;;54.53;6.80;;;8.90;99.90;;;;;;5048928;28;20122;-60
2022/12/24 07:59:52;;;;;;;54.70;6.93;;;9.00;99.90;;;;;;5044642;28;20060;-54
2022/12/24 08:02:19;;;;;;;56.92;6.43;;;8.90;99.90;;;;;;5043346;28;20053;-57
2022/12/24 08:04:45;;;;;;;54.70;7.18;;;8.90;99.90;;;;;;5045173;28;20139;-61
2022/12/24 08:07:14;;;;;;;65.35;7.30;;;9.00;99.90;;;;;;5049110;28;20061;-57
2022/12/24 08:09:40;;;;;;;61.20;7.70;;;9.00;99.90;;;;;;5046191;28;20088;-61
2022/12/24 08:12:07;;;;;;;51.38;7.57;;;9.00;99.90;;;;;;5049540;28;20115;-59
2022/12/24 08:14:34;;;;;;;59.03;7.60;;;9.00;99.90;;;;;;5048167;28;20470;-63
2022/12/24 08:17:01;;;;;;;69.32;8.07;;;9.00;99.90;;;;;;5042217;28;20056;-59
2022/12/24 08:19:28;;;;;;;54.08;7.10;;;9.00;99.90;;;;;;5047356;28;20135;-55
2022/12/24 08:21:55;;;;;;;63.70;8.02;;;9.00;99.90;;;;;;5044689;28;20156;-53
2022/12/24 08:24:23;;;;;;;65.40;7.82;;;9.00;99.90;;;;;;5047314;28;20076;-60
2022/12/24 08:26:50;;;;;;;58.10;8.85;;;9.00;99.90;;;;;;5048093;28;20110;-62
2022/12/24 08:29:16;;;;;;;57.40;7.50;;;9.00;99.90;;;;;;5049553;28;20555;-62
2022/12/24 08:31:43;;;;;;;57.30;7.45;;;9.00;99.90;;;;;;5045293;28;20056;-47
2022/12/24 08:34:10;;;;;;;61.08;7.63;;;9.00;99.90;;;;;;5046575;28;20244;-61
2022/12/24 08:36:37;;;;;;;53.80;8.43;;;9.00;99.90;;;;;;5049531;28;20143;-60
2022/12/24 08:39:04;;;;;;;70.68;9.55;;;9.00;99.90;;;;;;5047088;28;20053;-61
2022/12/24 08:41:32;;;;;;;59.63;7.72;;;9.00;99.90;;;;;;5044818;28;20099;-60
2022/12/24 08:43:59;;;;;;;59.92;7.47;;;9.00;99.90;;;;;;5045383;28;20315;-61
2022/12/24 08:46:26;;;;;;;68.38;7.10;;;9.00;99.90;;;;;;5044974;28;20119;-63
2022/12/24 08:48:53;;;;;;;71.20;8.77;;;9.00;99.90;;;;;;5060185;28;20053;-56
2022/12/24 08:51:19;;;;;;;60.28;7.40;;;9.00;99.90;;;;;;5047176;28;20061;-59
2022/12/24 08:53:46;;;;;;;62.35;7.90;;;9.00;99.90;;;;;;5044178;28;20076;-51
2022/12/24 08:56:13;;;;;;;56.03;7.38;;;9.10;99.90;;;;;;5046012;28;20667;-63
2022/12/24 08:58:41;;;;;;;67.38;7.75;;;9.10;99.90;;;;;;5044341;28;20206;-61
2022/12/24 09:01:12;;;;;;;64.57;8.13;;;9.10;99.90;;;;;;5047234;28;20052;-59
2022/12/24 09:03:39;;;;;;;59.13;7.20;;;9.10;99.90;;;;;;5049774;28;20057;-65
2022/12/24 09:06:06;;;;;;;72.30;8.73;;;9.10;99.90;;;;;;5050543;28;20049;-52
2022/12/24 09:08:33;;;;;;;57.97;8.02;;;9.10;99.90;;;;;;5045677;28;20536;-62
2022/12/24 09:11:04;;;;;;;66.40;7.60;;;9.20;99.90;;;;;;5044813;28;20060;-63
2022/12/24 09:13:30;;;;;;;63.58;9.13;;;9.20;99.90;;;;;;5044454;28;20037;-62
2022/12/24 09:15:58;;;;;;;65.15;8.70;;;9.10;99.90;;;;;;5044075;28;20091;-61
2022/12/24 09:18:25;;;;;;;62.55;8.25;;;9.20;99.90;;;;;;5040531;28;20084;-54
2022/12/24 09:20:52;;;;;;;69.13;8.70;;;9.20;99.90;;;;;;5049103;28;20065;-62
2022/12/24 09:23:19;;;;;;;79.80;9.00;;;9.30;99.90;;;;;;5044278;28;20136;-61
2022/12/24 09:25:46;;;;;;;59.92;7.85;;;9.20;99.90;;;;;;5041594;28;20136;-61
2022/12/24 09:28:12;;;;;;;76.93;9.60;;;9.30;99.90;;;;;;5044993;28;21212;-64
2022/12/24 09:30:39;;;;;;;67.47;9.32;;;9.30;99.90;;;;;;5053375;28;20451;-56
2022/12/24 09:33:07;;;;;;;57.17;7.70;;;9.30;99.90;;;;;;5046277;28;20053;-62
2022/12/24 09:35:34;;;;;;;57.95;8.13;;;9.30;99.90;;;;;;5051564;28;20095;-64
2022/12/24 09:38:02;;;;;;;59.92;8.00;;;9.40;99.90;;;;;;5043484;28;20500;-58
2022/12/24 09:40:33;;;;;;;64.50;8.60;;;9.40;99.90;;;;;;5046239;28;20072;-58
2022/12/24 09:42:59;;;;;;;66.43;8.50;;;9.40;99.90;;;;;;5045844;28;20080;-64
2022/12/24 09:45:29;;;;;;;63.50;8.43;;;9.40;99.90;;;;;;5042761;28;20095;-55
2022/12/24 09:47:57;;;;;;;64.68;9.88;;;9.40;99.90;;;;;;5044175;28;20063;-53
2022/12/24 09:50:32;;;;;;;58.92;7.95;;;9.50;99.90;;;;;;5051739;28;20053;-58
2022/12/24 09:53:00;;;;;;;51.72;6.72;;;9.40;99.90;;;;;;5049502;28;20094;-56
2022/12/24 09:55:28;;;;;;;54.00;7.50;;;9.40;99.90;;;;;;5046441;28;20071;-57
2022/12/24 09:57:55;;;;;;;60.00;6.95;;;9.40;99.90;;;;;;5049556;28;20437;-57
2022/12/24 10:00:23;;;;;;;38.45;6.38;;;9.40;99.90;;;;;;5051870;28;20056;-57
2022/12/24 10:02:50;;;;;;;48.05;7.45;;;9.40;99.90;;;;;;5044592;28;20139;-59
2022/12/24 10:05:17;;;;;;;46.65;6.47;;;9.40;99.90;;;;;;5049444;28;20053;-59
2022/12/24 10:07:48;;;;;;;42.88;5.60;;;9.40;99.90;;;;;;5051246;28;20095;-61
2022/12/24 10:10:19;;;;;;;44.33;6.38;;;9.40;99.90;;;;;;5049362;28;20049;-51
2022/12/24 10:12:50;;;;;;;45.42;6.47;;;9.50;99.90;;;;;;5048284;28;20698;-58
2022/12/24 10:15:20;;;;;;;50.33;6.90;;;9.50;99.90;;;;;;5051426;28;20107;-57
2022/12/24 10:17:54;;;;;;;44.22;6.70;;;9.50;99.90;;;;;;5049662;28;20287;-58
2022/12/24 10:20:35;;;;;;;43.30;6.40;;;9.50;99.90;;;;;;5050570;28;20432;-62
2022/12/24 10:23:07;;;;;;;42.42;6.88;;;9.60;99.90;;;;;;5049348;28;20095;-59
2022/12/24 10:25:36;;;;;;;54.55;6.43;;;9.60;99.90;;;;;;5051842;28;20135;-62
2022/12/24 10:28:05;;;;;;;54.90;6.97;;;9.60;99.90;;;;;;5050919;28;20060;-62
2022/12/24 10:30:32;;;;;;;49.70;5.57;;;9.70;99.90;;;;;;5052452;28;20124;-60
2022/12/24 10:32:59;;;;;;;54.28;7.68;;;9.70;99.90;;;;;;5050580;28;20089;-61
2022/12/24 10:35:27;;;;;;;55.67;6.05;;;9.70;99.90;;;;;;5052536;28;20080;-66
2022/12/24 10:37:56;;;;;;;45.38;6.97;;;9.70;99.90;;;;;;5050039;28;20103;-50
2022/12/24 10:40:31;;;;;;;55.25;6.70;;;9.70;99.90;;;;;;5048808;28;20045;-52
2022/12/24 10:42:58;;;;;;;51.63;6.72;;;9.70;99.90;;;;;;5050613;28;20385;-54
2022/12/24 10:45:27;;;;;;;54.63;6.38;;;9.80;99.90;;;;;;5052095;28;20053;-60
2022/12/24 10:47:55;;;;;;;56.08;7.68;;;9.80;99.90;;;;;;5049932;28;20085;-63
2022/12/24 10:50:25;;;;;;;47.67;7.00;;;9.80;99.90;;;;;;5051546;28;20049;-62
2022/12/24 10:52:51;;;;;;;63.72;7.50;;;9.80;99.90;;;;;;5051452;28;20080;-61
2022/12/24 10:55:22;;;;;;;60.53;7.47;;;9.80;99.90;;;;;;5052271;28;20048;-62
2022/12/24 10:57:59;;;;;;;56.10;7.10;;;9.80;99.90;;;;;;5051063;28;20092;-61
2022/12/24 11:00:26;;;;;;;52.95;6.82;;;9.80;99.90;;;;;;5051778;28;20088;-62
2022/12/24 11:03:06;;;;;;;58.38;7.75;;;9.80;99.90;;;;;;5051623;28;20106;-60
2022/12/24 11:05:34;;;;;;;66.60;7.85;;;9.80;99.90;;;;;;5038216;28;20448;-63
2022/12/24 11:08:01;;;;;;;56.92;7.07;;;9.80;99.90;;;;;;5052337;28;20118;-60
2022/12/24 11:10:28;;;;;;;54.20;7.88;;;9.80;99.90;;;;;;5052251;28;20386;-65
2022/12/24 11:12:54;;;;;;;68.57;8.88;;;9.80;99.90;;;;;;5054349;28;20053;-62
2022/12/24 11:15:24;;;;;;;53.63;7.72;;;9.80;99.90;;;;;;5055583;28;20041;-62
2022/12/24 11:17:54;;;;;;;67.55;9.27;;;9.80;99.90;;;;;;5055056;28;20103;-64
2022/12/24 11:20:24;;;;;;;63.90;8.85;;;9.90;99.90;;;;;;5049301;28;20052;-60
2022/12/24 11:22:51;;;;;;;59.85;8.43;;;9.80;99.90;;;;;;5037336;28;20061;-57
2022/12/24 11:25:19;;;;;;;64.55;9.30;;;9.80;99.90;;;;;;5050047;28;20497;-58
2022/12/24 11:27:49;;;;;;;59.67;7.85;;;9.80;99.90;;;;;;5052656;28;20219;-53
2022/12/24 11:30:26;;;;;;;53.03;8.23;;;9.80;99.90;;;;;;5048725;28;20056;-55
2022/12/24 11:33:20;;;;;;;50.88;7.60;;;9.80;99.90;;;;;;5044506;28;20087;-64
2022/12/24 11:35:49;;;;;;;62.70;6.80;;;9.80;99.90;;;;;;5054868;28;20405;-58
2022/12/24 11:38:23;;;;;;;47.55;6.75;;;9.80;99.90;;;;;;5055263;28;20099;-58
2022/12/24 11:40:58;;;;;;;50.70;7.38;;;9.90;99.90;;;;;;5053638;28;20084;-58
2022/12/24 11:43:24;;;;;;;52.97;7.13;;;9.90;99.90;;;;;;5052502;28;20049;-58
2022/12/24 11:45:53;;;;;;;37.50;6.88;;;9.90;99.90;;;;;;5053412;28;20102;-62
2022/12/24 11:48:25;;;;;;;48.65;7.00;;;9.90;99.90;;;;;;5052052;28;20484;-61
2022/12/24 11:50:55;;;;;;;;;;;9.90;99.90;;;;;;5048723;28;20131;-59
2022/12/24 11:53:23;;;;;;;41.97;6.57;;;9.90;99.90;;;;;;5047060;28;20054;-62
2022/12/24 11:55:51;;;;;;;46.65;7.68;;;9.90;99.90;;;;;;5047760;28;20566;-63
2022/12/24 11:58:22;;;;;;;49.10;7.07;;;9.90;99.90;;;;;;5050098;28;20106;-63
2022/12/24 12:00:49;;;;;;;47.95;7.28;;;9.90;99.90;;;;;;5046711;28;20072;-61
2022/12/24 12:03:30;;;;;;;48.20;7.65;;;9.90;99.90;;;;;;5046132;28;20559;-63
2022/12/24 12:05:56;;;;;;;47.13;6.97;;;9.90;99.90;;;;;;5047227;28;20085;-60
2022/12/24 12:08:23;;;;;;;45.90;6.95;;;9.90;99.90;;;;;;5047911;28;20063;-56
2022/12/24 12:10:50;;;;;;;37.75;5.88;;;9.90;99.90;;;;;;5047093;28;20145;-63
2022/12/24 12:13:19;;;;;;;52.47;6.63;;;9.90;99.90;;;;;;5047918;28;20041;-66
2022/12/24 12:15:47;;;;;;;48.35;6.78;;;9.90;99.90;;;;;;5042903;28;20136;-65
2022/12/24 12:18:15;;;;;;;42.67;6.80;;;10.00;99.90;;;;;;5053600;28;20087;-60
2022/12/24 12:20:45;;;;;;;43.35;7.28;;;9.90;99.90;;;;;;5048289;28;20111;-66
2022/12/24 12:23:14;;;;;;;37.92;5.95;;;9.90;99.90;;;;;;5042699;28;20571;-67
2022/12/24 12:25:44;;;;;;;40.70;6.18;;;9.90;99.90;;;;;;5048606;28;20041;-62
2022/12/24 12:28:15;;;;;;;41.60;4.70;;;9.90;99.90;;;;;;5053328;28;20067;-58
2022/12/24 12:30:42;;;;;;;36.53;5.90;;;9.80;99.90;;;;;;5047247;28;20045;-65
2022/12/24 12:33:13;;;;;;;32.83;5.32;;;9.90;99.90;;;;;;5052905;28;20135;-59
2022/12/24 12:35:40;;;;;;;42.57;4.87;;;10.00;99.90;;;;;;5043638;28;20077;-59
2022/12/24 12:38:10;;;;;;;34.58;5.10;;;10.00;99.90;;;;;;5050376;28;20056;-64
2022/12/24 12:41:01;;;;;;;34.83;5.72;;;10.00;99.90;;;;;;5051707;28;20096;-62
2022/12/24 12:43:41;;;;;;;37.92;5.93;;;10.00;99.90;;;;;;5042122;28;20110;-64
2022/12/24 12:46:11;;;;;;;40.50;5.28;;;10.00;99.90;;;;;;5052171;28;20131;-62
2022/12/24 12:48:53;;;;;;;40.65;5.50;;;10.00;99.90;;;;;;5039676;28;20130;-61
2022/12/24 12:51:22;;;;;;;;;;;10.00;99.90;;;;;;5044940;28;20058;-63
2022/12/24 12:54:05;;;;;;;36.78;5.25;;;10.00;99.90;;;;;;5044670;28;19964;-65
2022/12/24 12:56:34;;;;;;;32.10;4.78;;;10.00;99.90;;;;;;5052035;28;20080;-62
2022/12/24 12:59:03;;;;;;;30.65;4.82;;;10.00;99.90;;;;;;5044577;28;20440;-58
2022/12/24 13:01:34;;;;;;;39.63;5.70;;;10.10;99.90;;;;;;5050684;28;20091;-63
2022/12/24 13:04:19;;;;;;;29.17;4.68;;;10.00;99.90;;;;;;5046327;28;20053;-58